sensor_id;sensor_type;location;lat;lon;timestamp;P1;durP1;ratioP1;P2;durP2;ratioP2
8327;SDS011;4201;48.754;8.864;2023-05-15T00:00:04;10.30;;;8.67;;
8327;SDS011;4201;48.754;8.864;2023-05-15T00:02:30;10.03;;;8.57;;
8327;SDS011;4201;48.754;8.864;2023-05-15T00:04:57;9.33;;;7.70;;
8327;SDS011;4201;48.754;8.864;2023-05-15T00:07:23;8.97;;;8.03;;
8327;SDS011;4201;48.754;8.864;2023-05-15T00:09:50;10.57;;;8.40;;
8327;SDS011;4201;48.754;8.864;2023-05-15T00:12:16;10.27;;;8.70;;
8327;SDS011;4201;48.754;8.864;2023-05-15T00:14:42;8.43;;;7.33;;
8327;SDS011;4201;48.754;8.864;2023-05-15T00:17:10;10.03;;;7.43;;
8327;SDS011;4201;48.754;8.864;2023-05-15T00:19:36;9.43;;;8.43;;
8327;SDS011;4201;48.754;8.864;2023-05-15T00:22:03;11.30;;;9.27;;
8327;SDS011;4201;48.754;8.864;2023-05-15T00:24:29;9.20;;;7.90;;
8327;SDS011;4201;48.754;8.864;2023-05-15T00:26:55;14.23;;;9.03;;
8327;SDS011;4201;48.754;8.864;2023-05-15T00:29:21;10.10;;;9.07;;
8327;SDS011;4201;48.754;8.864;2023-05-15T00:31:48;8.77;;;7.87;;
8327;SDS011;4201;48.754;8.864;2023-05-15T00:34:16;9.77;;;7.70;;
8327;SDS011;4201;48.754;8.864;2023-05-15T00:36:42;12.80;;;9.13;;
8327;SDS011;4201;48.754;8.864;2023-05-15T00:39:08;13.17;;;9.83;;
8327;SDS011;4201;48.754;8.864;2023-05-15T00:41:35;9.80;;;8.53;;
8327;SDS011;4201;48.754;8.864;2023-05-15T00:44:01;10.47;;;8.87;;
8327;SDS011;4201;48.754;8.864;2023-05-15T00:46:28;10.70;;;9.03;;
8327;SDS011;4201;48.754;8.864;2023-05-15T00:48:56;11.83;;;9.03;;
8327;SDS011;4201;48.754;8.864;2023-05-15T00:51:24;11.17;;;8.80;;
8327;SDS011;4201;48.754;8.864;2023-05-15T00:53:50;13.63;;;8.70;;
8327;SDS011;4201;48.754;8.864;2023-05-15T00:56:17;10.70;;;9.27;;
8327;SDS011;4201;48.754;8.864;2023-05-15T00:58:44;13.50;;;9.03;;
8327;SDS011;4201;48.754;8.864;2023-05-15T01:01:11;11.33;;;9.60;;
8327;SDS011;4201;48.754;8.864;2023-05-15T01:03:38;10.70;;;9.10;;
8327;SDS011;4201;48.754;8.864;2023-05-15T01:06:04;11.63;;;9.30;;
8327;SDS011;4201;48.754;8.864;2023-05-15T01:08:33;12.30;;;9.63;;
8327;SDS011;4201;48.754;8.864;2023-05-15T01:11:03;11.30;;;8.50;;
8327;SDS011;4201;48.754;8.864;2023-05-15T01:13:30;9.97;;;7.77;;
8327;SDS011;4201;48.754;8.864;2023-05-15T01:15:57;11.10;;;8.73;;
8327;SDS011;4201;48.754;8.864;2023-05-15T01:18:23;9.20;;;8.00;;
8327;SDS011;4201;48.754;8.864;2023-05-15T01:21:00;11.93;;;9.10;;
8327;SDS011;4201;48.754;8.864;2023-05-15T01:23:37;10.30;;;8.60;;
8327;SDS011;4201;48.754;8.864;2023-05-15T01:26:09;10.90;;;9.20;;
8327;SDS011;4201;48.754;8.864;2023-05-15T01:28:44;9.83;;;8.70;;
8327;SDS011;4201;48.754;8.864;2023-05-15T01:31:13;12.33;;;9.10;;
8327;SDS011;4201;48.754;8.864;2023-05-15T01:33:42;11.87;;;9.03;;
8327;SDS011;4201;48.754;8.864;2023-05-15T01:36:10;12.10;;;9.00;;
8327;SDS011;4201;48.754;8.864;2023-05-15T01:38:38;12.80;;;9.30;;
8327;SDS011;4201;48.754;8.864;2023-05-15T01:41:09;10.80;;;8.07;;
8327;SDS011;4201;48.754;8.864;2023-05-15T01:43:36;13.70;;;9.77;;
8327;SDS011;4201;48.754;8.864;2023-05-15T01:46:05;11.63;;;9.27;;
8327;SDS011;4201;48.754;8.864;2023-05-15T01:48:32;11.57;;;9.73;;
8327;SDS011;4201;48.754;8.864;2023-05-15T01:51:01;14.40;;;9.00;;
8327;SDS011;4201;48.754;8.864;2023-05-15T01:53:28;10.93;;;8.93;;
8327;SDS011;4201;48.754;8.864;2023-05-15T01:55:55;11.13;;;9.47;;
8327;SDS011;4201;48.754;8.864;2023-05-15T01:58:22;12.10;;;8.77;;
8327;SDS011;4201;48.754;8.864;2023-05-15T02:00:50;11.10;;;8.87;;
8327;SDS011;4201;48.754;8.864;2023-05-15T02:03:18;12.47;;;9.23;;
8327;SDS011;4201;48.754;8.864;2023-05-15T02:05:45;13.23;;;9.40;;
8327;SDS011;4201;48.754;8.864;2023-05-15T02:08:11;12.70;;;9.30;;
8327;SDS011;4201;48.754;8.864;2023-05-15T02:10:39;13.37;;;10.70;;
8327;SDS011;4201;48.754;8.864;2023-05-15T02:13:06;11.83;;;9.73;;
8327;SDS011;4201;48.754;8.864;2023-05-15T02:15:32;11.43;;;9.30;;
8327;SDS011;4201;48.754;8.864;2023-05-15T02:17:59;15.80;;;9.50;;
8327;SDS011;4201;48.754;8.864;2023-05-15T02:20:27;14.63;;;10.60;;
8327;SDS011;4201;48.754;8.864;2023-05-15T02:22:53;13.07;;;11.17;;
8327;SDS011;4201;48.754;8.864;2023-05-15T02:25:19;11.20;;;9.10;;
8327;SDS011;4201;48.754;8.864;2023-05-15T02:27:50;14.67;;;8.80;;
8327;SDS011;4201;48.754;8.864;2023-05-15T02:30:22;12.20;;;9.37;;
8327;SDS011;4201;48.754;8.864;2023-05-15T02:32:55;15.63;;;9.77;;
8327;SDS011;4201;48.754;8.864;2023-05-15T02:35:25;11.80;;;10.00;;
8327;SDS011;4201;48.754;8.864;2023-05-15T02:37:55;11.60;;;9.57;;
8327;SDS011;4201;48.754;8.864;2023-05-15T02:40:23;10.70;;;9.00;;
8327;SDS011;4201;48.754;8.864;2023-05-15T02:42:51;11.40;;;9.30;;
8327;SDS011;4201;48.754;8.864;2023-05-15T02:45:17;12.03;;;9.37;;
8327;SDS011;4201;48.754;8.864;2023-05-15T02:47:44;11.27;;;9.50;;
8327;SDS011;4201;48.754;8.864;2023-05-15T02:50:12;10.60;;;8.00;;
8327;SDS011;4201;48.754;8.864;2023-05-15T02:52:39;9.93;;;7.47;;
8327;SDS011;4201;48.754;8.864;2023-05-15T02:55:07;9.97;;;8.20;;
8327;SDS011;4201;48.754;8.864;2023-05-15T02:57:33;8.87;;;6.53;;
8327;SDS011;4201;48.754;8.864;2023-05-15T02:59:59;11.27;;;7.10;;
8327;SDS011;4201;48.754;8.864;2023-05-15T03:02:26;8.17;;;7.23;;
8327;SDS011;4201;48.754;8.864;2023-05-15T03:04:52;9.57;;;7.17;;
8327;SDS011;4201;48.754;8.864;2023-05-15T03:07:18;9.80;;;7.87;;
8327;SDS011;4201;48.754;8.864;2023-05-15T03:09:45;10.50;;;7.50;;
8327;SDS011;4201;48.754;8.864;2023-05-15T03:12:12;8.20;;;7.30;;
8327;SDS011;4201;48.754;8.864;2023-05-15T03:14:39;8.87;;;7.50;;
8327;SDS011;4201;48.754;8.864;2023-05-15T03:17:05;13.03;;;7.50;;
8327;SDS011;4201;48.754;8.864;2023-05-15T03:19:31;8.20;;;7.40;;
8327;SDS011;4201;48.754;8.864;2023-05-15T03:21:57;9.17;;;7.47;;
8327;SDS011;4201;48.754;8.864;2023-05-15T03:24:23;7.63;;;6.63;;
8327;SDS011;4201;48.754;8.864;2023-05-15T03:26:50;8.50;;;7.57;;
8327;SDS011;4201;48.754;8.864;2023-05-15T03:29:17;10.00;;;8.67;;
8327;SDS011;4201;48.754;8.864;2023-05-15T03:31:43;8.57;;;7.37;;
8327;SDS011;4201;48.754;8.864;2023-05-15T03:34:10;10.33;;;8.90;;
8327;SDS011;4201;48.754;8.864;2023-05-15T03:36:36;10.33;;;8.73;;
8327;SDS011;4201;48.754;8.864;2023-05-15T03:39:02;10.23;;;8.40;;
8327;SDS011;4201;48.754;8.864;2023-05-15T03:41:29;10.60;;;8.30;;
8327;SDS011;4201;48.754;8.864;2023-05-15T03:43:55;9.40;;;8.17;;
8327;SDS011;4201;48.754;8.864;2023-05-15T03:46:23;11.53;;;8.87;;
8327;SDS011;4201;48.754;8.864;2023-05-15T03:48:49;10.67;;;8.70;;
8327;SDS011;4201;48.754;8.864;2023-05-15T03:51:16;9.87;;;7.20;;
8327;SDS011;4201;48.754;8.864;2023-05-15T03:53:42;10.20;;;8.07;;
8327;SDS011;4201;48.754;8.864;2023-05-15T03:56:08;8.60;;;7.70;;
8327;SDS011;4201;48.754;8.864;2023-05-15T03:58:34;10.20;;;8.73;;
8327;SDS011;4201;48.754;8.864;2023-05-15T04:01:01;10.70;;;8.30;;
8327;SDS011;4201;48.754;8.864;2023-05-15T04:03:28;8.00;;;6.70;;
8327;SDS011;4201;48.754;8.864;2023-05-15T04:05:54;10.90;;;7.80;;
8327;SDS011;4201;48.754;8.864;2023-05-15T04:08:21;12.37;;;8.33;;
8327;SDS011;4201;48.754;8.864;2023-05-15T04:10:47;7.80;;;6.60;;
8327;SDS011;4201;48.754;8.864;2023-05-15T04:13:13;7.87;;;6.90;;
8327;SDS011;4201;48.754;8.864;2023-05-15T04:15:39;8.77;;;6.80;;
8327;SDS011;4201;48.754;8.864;2023-05-15T04:18:06;10.43;;;7.33;;
8327;SDS011;4201;48.754;8.864;2023-05-15T04:20:33;9.40;;;8.00;;
8327;SDS011;4201;48.754;8.864;2023-05-15T04:23:00;9.80;;;7.80;;
8327;SDS011;4201;48.754;8.864;2023-05-15T04:25:28;9.17;;;8.10;;
8327;SDS011;4201;48.754;8.864;2023-05-15T04:27:54;9.03;;;7.80;;
8327;SDS011;4201;48.754;8.864;2023-05-15T04:30:21;10.83;;;7.67;;
8327;SDS011;4201;48.754;8.864;2023-05-15T04:32:47;9.90;;;7.93;;
8327;SDS011;4201;48.754;8.864;2023-05-15T04:35:13;14.37;;;11.07;;
8327;SDS011;4201;48.754;8.864;2023-05-15T04:37:41;11.40;;;10.20;;
8327;SDS011;4201;48.754;8.864;2023-05-15T04:40:09;15.53;;;8.03;;
8327;SDS011;4201;48.754;8.864;2023-05-15T04:42:38;13.90;;;8.17;;
8327;SDS011;4201;48.754;8.864;2023-05-15T04:45:05;11.77;;;8.50;;
8327;SDS011;4201;48.754;8.864;2023-05-15T04:47:32;9.00;;;7.57;;
8327;SDS011;4201;48.754;8.864;2023-05-15T04:49:58;13.47;;;7.40;;
8327;SDS011;4201;48.754;8.864;2023-05-15T04:52:24;9.97;;;8.43;;
8327;SDS011;4201;48.754;8.864;2023-05-15T04:54:52;9.23;;;8.27;;
8327;SDS011;4201;48.754;8.864;2023-05-15T04:57:19;9.90;;;8.80;;
8327;SDS011;4201;48.754;8.864;2023-05-15T04:59:45;9.57;;;8.57;;
8327;SDS011;4201;48.754;8.864;2023-05-15T05:02:12;12.73;;;8.83;;
8327;SDS011;4201;48.754;8.864;2023-05-15T05:04:40;15.23;;;10.20;;
8327;SDS011;4201;48.754;8.864;2023-05-15T05:07:07;10.43;;;8.03;;
8327;SDS011;4201;48.754;8.864;2023-05-15T05:09:33;9.83;;;8.50;;
8327;SDS011;4201;48.754;8.864;2023-05-15T05:12:01;11.13;;;9.93;;
8327;SDS011;4201;48.754;8.864;2023-05-15T05:14:27;14.10;;;8.93;;
8327;SDS011;4201;48.754;8.864;2023-05-15T05:16:53;10.57;;;8.93;;
8327;SDS011;4201;48.754;8.864;2023-05-15T05:19:20;10.53;;;9.43;;
8327;SDS011;4201;48.754;8.864;2023-05-15T05:21:46;10.70;;;8.47;;
8327;SDS011;4201;48.754;8.864;2023-05-15T05:24:12;21.73;;;13.93;;
8327;SDS011;4201;48.754;8.864;2023-05-15T05:26:38;10.70;;;9.37;;
8327;SDS011;4201;48.754;8.864;2023-05-15T05:29:06;9.70;;;8.80;;
8327;SDS011;4201;48.754;8.864;2023-05-15T05:31:32;12.83;;;8.47;;
8327;SDS011;4201;48.754;8.864;2023-05-15T05:33:59;14.33;;;8.43;;
8327;SDS011;4201;48.754;8.864;2023-05-15T05:36:25;9.10;;;8.20;;
8327;SDS011;4201;48.754;8.864;2023-05-15T05:38:51;9.87;;;8.00;;
8327;SDS011;4201;48.754;8.864;2023-05-15T05:41:17;9.30;;;8.33;;
8327;SDS011;4201;48.754;8.864;2023-05-15T05:43:44;8.87;;;7.93;;
8327;SDS011;4201;48.754;8.864;2023-05-15T05:46:11;8.83;;;7.93;;
8327;SDS011;4201;48.754;8.864;2023-05-15T05:48:37;13.60;;;9.10;;
8327;SDS011;4201;48.754;8.864;2023-05-15T05:51:04;10.83;;;7.90;;
8327;SDS011;4201;48.754;8.864;2023-05-15T05:53:30;9.37;;;8.13;;
8327;SDS011;4201;48.754;8.864;2023-05-15T05:55:56;11.40;;;8.30;;
8327;SDS011;4201;48.754;8.864;2023-05-15T05:58:22;10.93;;;8.50;;
8327;SDS011;4201;48.754;8.864;2023-05-15T06:00:49;9.20;;;8.20;;
8327;SDS011;4201;48.754;8.864;2023-05-15T06:03:16;10.70;;;9.10;;
8327;SDS011;4201;48.754;8.864;2023-05-15T06:05:43;9.77;;;7.27;;
8327;SDS011;4201;48.754;8.864;2023-05-15T06:08:09;8.10;;;7.30;;
8327;SDS011;4201;48.754;8.864;2023-05-15T06:10:36;6.50;;;5.80;;
8327;SDS011;4201;48.754;8.864;2023-05-15T06:13:02;6.90;;;6.20;;
8327;SDS011;4201;48.754;8.864;2023-05-15T06:15:28;9.10;;;6.30;;
8327;SDS011;4201;48.754;8.864;2023-05-15T06:17:54;9.63;;;6.50;;
8327;SDS011;4201;48.754;8.864;2023-05-15T06:20:22;8.93;;;6.67;;
8327;SDS011;4201;48.754;8.864;2023-05-15T06:22:48;8.90;;;7.03;;
8327;SDS011;4201;48.754;8.864;2023-05-15T06:25:15;7.67;;;6.27;;
8327;SDS011;4201;48.754;8.864;2023-05-15T06:27:41;6.87;;;6.03;;
8327;SDS011;4201;48.754;8.864;2023-05-15T06:30:08;6.23;;;5.63;;
8327;SDS011;4201;48.754;8.864;2023-05-15T06:32:34;7.43;;;5.67;;
8327;SDS011;4201;48.754;8.864;2023-05-15T06:35:00;5.83;;;5.10;;
8327;SDS011;4201;48.754;8.864;2023-05-15T06:37:28;5.83;;;5.10;;
8327;SDS011;4201;48.754;8.864;2023-05-15T06:39:54;7.20;;;5.10;;
8327;SDS011;4201;48.754;8.864;2023-05-15T06:42:21;5.40;;;4.60;;
8327;SDS011;4201;48.754;8.864;2023-05-15T06:44:47;5.17;;;4.67;;
8327;SDS011;4201;48.754;8.864;2023-05-15T06:47:13;7.77;;;5.13;;
8327;SDS011;4201;48.754;8.864;2023-05-15T06:49:40;4.57;;;4.10;;
8327;SDS011;4201;48.754;8.864;2023-05-15T06:52:06;5.37;;;4.47;;
8327;SDS011;4201;48.754;8.864;2023-05-15T06:54:34;6.63;;;4.60;;
8327;SDS011;4201;48.754;8.864;2023-05-15T06:57:00;5.57;;;4.53;;
8327;SDS011;4201;48.754;8.864;2023-05-15T06:59:26;5.73;;;4.67;;
8327;SDS011;4201;48.754;8.864;2023-05-15T07:01:52;6.40;;;4.90;;
8327;SDS011;4201;48.754;8.864;2023-05-15T07:04:19;6.10;;;4.50;;
8327;SDS011;4201;48.754;8.864;2023-05-15T07:06:46;6.83;;;5.07;;
8327;SDS011;4201;48.754;8.864;2023-05-15T07:09:12;5.80;;;4.00;;
8327;SDS011;4201;48.754;8.864;2023-05-15T07:11:39;8.40;;;4.03;;
8327;SDS011;4201;48.754;8.864;2023-05-15T07:14:06;7.43;;;3.97;;
8327;SDS011;4201;48.754;8.864;2023-05-15T07:16:32;4.70;;;3.90;;
8327;SDS011;4201;48.754;8.864;2023-05-15T07:18:59;4.50;;;3.80;;
8327;SDS011;4201;48.754;8.864;2023-05-15T07:21:25;5.00;;;4.40;;
8327;SDS011;4201;48.754;8.864;2023-05-15T07:23:51;5.13;;;3.83;;
8327;SDS011;4201;48.754;8.864;2023-05-15T07:26:17;4.83;;;4.03;;
8327;SDS011;4201;48.754;8.864;2023-05-15T07:28:45;4.53;;;4.07;;
8327;SDS011;4201;48.754;8.864;2023-05-15T07:31:11;9.87;;;4.27;;
8327;SDS011;4201;48.754;8.864;2023-05-15T07:33:37;4.30;;;3.87;;
8327;SDS011;4201;48.754;8.864;2023-05-15T07:36:04;4.93;;;3.30;;
8327;SDS011;4201;48.754;8.864;2023-05-15T07:38:30;5.70;;;4.60;;
8327;SDS011;4201;48.754;8.864;2023-05-15T07:40:57;4.63;;;3.67;;
8327;SDS011;4201;48.754;8.864;2023-05-15T07:43:23;3.90;;;3.30;;
8327;SDS011;4201;48.754;8.864;2023-05-15T07:45:51;4.40;;;3.50;;
8327;SDS011;4201;48.754;8.864;2023-05-15T07:48:18;5.17;;;3.33;;
8327;SDS011;4201;48.754;8.864;2023-05-15T07:50:45;5.40;;;3.47;;
8327;SDS011;4201;48.754;8.864;2023-05-15T07:53:11;5.70;;;3.47;;
8327;SDS011;4201;48.754;8.864;2023-05-15T07:55:37;5.33;;;3.60;;
8327;SDS011;4201;48.754;8.864;2023-05-15T07:58:04;5.20;;;3.47;;
8327;SDS011;4201;48.754;8.864;2023-05-15T08:00:30;4.17;;;3.30;;
8327;SDS011;4201;48.754;8.864;2023-05-15T08:02:58;4.73;;;3.67;;
8327;SDS011;4201;48.754;8.864;2023-05-15T08:05:25;5.60;;;3.73;;
8327;SDS011;4201;48.754;8.864;2023-05-15T08:07:51;6.57;;;3.97;;
8327;SDS011;4201;48.754;8.864;2023-05-15T08:10:17;4.40;;;3.40;;
8327;SDS011;4201;48.754;8.864;2023-05-15T08:12:43;6.07;;;3.47;;
8327;SDS011;4201;48.754;8.864;2023-05-15T08:15:11;3.53;;;2.93;;
8327;SDS011;4201;48.754;8.864;2023-05-15T08:17:37;3.90;;;3.00;;
8327;SDS011;4201;48.754;8.864;2023-05-15T08:20:06;6.50;;;3.70;;
8327;SDS011;4201;48.754;8.864;2023-05-15T08:22:32;4.67;;;3.90;;
8327;SDS011;4201;48.754;8.864;2023-05-15T08:24:59;6.00;;;3.83;;
8327;SDS011;4201;48.754;8.864;2023-05-15T08:27:27;4.10;;;3.30;;
8327;SDS011;4201;48.754;8.864;2023-05-15T08:29:54;6.00;;;3.80;;
8327;SDS011;4201;48.754;8.864;2023-05-15T08:32:20;4.70;;;4.07;;
8327;SDS011;4201;48.754;8.864;2023-05-15T08:34:46;4.70;;;4.10;;
8327;SDS011;4201;48.754;8.864;2023-05-15T08:37:14;4.80;;;4.03;;
8327;SDS011;4201;48.754;8.864;2023-05-15T08:39:40;5.00;;;4.20;;
8327;SDS011;4201;48.754;8.864;2023-05-15T08:42:07;5.67;;;4.07;;
8327;SDS011;4201;48.754;8.864;2023-05-15T08:44:34;4.60;;;3.83;;
8327;SDS011;4201;48.754;8.864;2023-05-15T08:47:01;5.40;;;4.13;;
8327;SDS011;4201;48.754;8.864;2023-05-15T08:49:31;7.37;;;5.20;;
8327;SDS011;4201;48.754;8.864;2023-05-15T08:51:58;6.13;;;4.37;;
8327;SDS011;4201;48.754;8.864;2023-05-15T08:54:25;5.03;;;4.20;;
8327;SDS011;4201;48.754;8.864;2023-05-15T08:56:52;5.33;;;3.93;;
8327;SDS011;4201;48.754;8.864;2023-05-15T08:59:18;5.03;;;3.60;;
8327;SDS011;4201;48.754;8.864;2023-05-15T09:01:45;7.90;;;4.60;;
8327;SDS011;4201;48.754;8.864;2023-05-15T09:04:11;5.30;;;4.43;;
8327;SDS011;4201;48.754;8.864;2023-05-15T09:06:37;4.57;;;3.93;;
8327;SDS011;4201;48.754;8.864;2023-05-15T09:09:04;4.07;;;3.50;;
8327;SDS011;4201;48.754;8.864;2023-05-15T09:11:31;4.93;;;3.93;;
8327;SDS011;4201;48.754;8.864;2023-05-15T09:13:57;4.80;;;4.07;;
8327;SDS011;4201;48.754;8.864;2023-05-15T09:16:24;7.27;;;4.83;;
8327;SDS011;4201;48.754;8.864;2023-05-15T09:18:51;4.70;;;3.83;;
8327;SDS011;4201;48.754;8.864;2023-05-15T09:21:20;8.27;;;3.87;;
8327;SDS011;4201;48.754;8.864;2023-05-15T09:23:47;6.50;;;3.60;;
8327;SDS011;4201;48.754;8.864;2023-05-15T09:26:13;5.47;;;4.13;;
8327;SDS011;4201;48.754;8.864;2023-05-15T09:28:41;5.10;;;4.60;;
8327;SDS011;4201;48.754;8.864;2023-05-15T09:31:07;7.20;;;4.40;;
8327;SDS011;4201;48.754;8.864;2023-05-15T09:33:34;4.00;;;3.43;;
8327;SDS011;4201;48.754;8.864;2023-05-15T09:36:00;4.93;;;4.17;;
8327;SDS011;4201;48.754;8.864;2023-05-15T09:38:27;5.87;;;3.97;;
8327;SDS011;4201;48.754;8.864;2023-05-15T09:41:00;3.87;;;2.90;;
8327;SDS011;4201;48.754;8.864;2023-05-15T09:43:27;7.40;;;4.10;;
8327;SDS011;4201;48.754;8.864;2023-05-15T09:45:54;4.50;;;3.50;;
8327;SDS011;4201;48.754;8.864;2023-05-15T09:48:21;4.50;;;3.73;;
8327;SDS011;4201;48.754;8.864;2023-05-15T09:50:47;7.57;;;4.10;;
8327;SDS011;4201;48.754;8.864;2023-05-15T09:53:14;4.30;;;3.87;;
8327;SDS011;4201;48.754;8.864;2023-05-15T09:55:40;5.23;;;4.43;;
8327;SDS011;4201;48.754;8.864;2023-05-15T09:58:07;5.40;;;3.90;;
8327;SDS011;4201;48.754;8.864;2023-05-15T10:00:35;5.10;;;4.17;;
8327;SDS011;4201;48.754;8.864;2023-05-15T10:03:03;6.13;;;4.07;;
8327;SDS011;4201;48.754;8.864;2023-05-15T10:05:29;5.77;;;4.20;;
8327;SDS011;4201;48.754;8.864;2023-05-15T10:07:56;7.60;;;4.00;;
8327;SDS011;4201;48.754;8.864;2023-05-15T10:10:22;6.00;;;4.30;;
8327;SDS011;4201;48.754;8.864;2023-05-15T10:12:49;4.07;;;3.67;;
8327;SDS011;4201;48.754;8.864;2023-05-15T10:15:16;3.90;;;3.37;;
8327;SDS011;4201;48.754;8.864;2023-05-15T10:17:43;6.83;;;3.70;;
8327;SDS011;4201;48.754;8.864;2023-05-15T10:20:12;4.23;;;3.83;;
8327;SDS011;4201;48.754;8.864;2023-05-15T10:22:39;4.30;;;3.27;;
8327;SDS011;4201;48.754;8.864;2023-05-15T10:25:07;4.57;;;3.73;;
8327;SDS011;4201;48.754;8.864;2023-05-15T10:27:34;5.13;;;3.73;;
8327;SDS011;4201;48.754;8.864;2023-05-15T10:30:02;4.63;;;3.80;;
8327;SDS011;4201;48.754;8.864;2023-05-15T10:32:29;6.00;;;3.97;;
8327;SDS011;4201;48.754;8.864;2023-05-15T10:34:55;4.30;;;3.50;;
8327;SDS011;4201;48.754;8.864;2023-05-15T10:37:24;4.93;;;3.90;;
8327;SDS011;4201;48.754;8.864;2023-05-15T10:39:51;7.67;;;4.13;;
8327;SDS011;4201;48.754;8.864;2023-05-15T10:42:19;3.73;;;2.80;;
8327;SDS011;4201;48.754;8.864;2023-05-15T10:44:46;4.33;;;3.20;;
8327;SDS011;4201;48.754;8.864;2023-05-15T10:47:13;4.50;;;3.33;;
8327;SDS011;4201;48.754;8.864;2023-05-15T10:49:39;4.83;;;2.90;;
8327;SDS011;4201;48.754;8.864;2023-05-15T10:52:05;7.37;;;3.47;;
8327;SDS011;4201;48.754;8.864;2023-05-15T10:54:33;4.03;;;3.37;;
8327;SDS011;4201;48.754;8.864;2023-05-15T10:57:00;4.00;;;3.23;;
8327;SDS011;4201;48.754;8.864;2023-05-15T10:59:29;4.83;;;2.97;;
8327;SDS011;4201;48.754;8.864;2023-05-15T11:01:56;5.33;;;3.63;;
8327;SDS011;4201;48.754;8.864;2023-05-15T11:04:22;12.33;;;3.13;;
8327;SDS011;4201;48.754;8.864;2023-05-15T11:06:50;5.33;;;3.03;;
8327;SDS011;4201;48.754;8.864;2023-05-15T11:09:37;4.80;;;3.07;;
8327;SDS011;4201;48.754;8.864;2023-05-15T11:12:04;7.27;;;3.27;;
8327;SDS011;4201;48.754;8.864;2023-05-15T11:14:31;5.10;;;2.93;;
8327;SDS011;4201;48.754;8.864;2023-05-15T11:16:58;4.67;;;3.23;;
8327;SDS011;4201;48.754;8.864;2023-05-15T11:19:30;2.90;;;2.23;;
8327;SDS011;4201;48.754;8.864;2023-05-15T11:21:56;8.90;;;2.73;;
8327;SDS011;4201;48.754;8.864;2023-05-15T11:24:25;5.33;;;2.77;;
8327;SDS011;4201;48.754;8.864;2023-05-15T11:26:57;3.37;;;2.30;;
8327;SDS011;4201;48.754;8.864;2023-05-15T11:29:24;4.93;;;2.83;;
8327;SDS011;4201;48.754;8.864;2023-05-15T11:31:50;4.30;;;2.63;;
8327;SDS011;4201;48.754;8.864;2023-05-15T11:34:27;4.63;;;3.47;;
8327;SDS011;4201;48.754;8.864;2023-05-15T11:36:53;4.83;;;3.10;;
8327;SDS011;4201;48.754;8.864;2023-05-15T11:39:22;4.90;;;2.60;;
8327;SDS011;4201;48.754;8.864;2023-05-15T11:41:48;4.00;;;2.83;;
8327;SDS011;4201;48.754;8.864;2023-05-15T11:44:19;4.90;;;3.40;;
8327;SDS011;4201;48.754;8.864;2023-05-15T11:46:45;3.80;;;2.67;;
8327;SDS011;4201;48.754;8.864;2023-05-15T11:49:11;3.43;;;2.70;;
8327;SDS011;4201;48.754;8.864;2023-05-15T11:51:39;3.30;;;2.40;;
8327;SDS011;4201;48.754;8.864;2023-05-15T11:54:07;3.83;;;2.40;;
8327;SDS011;4201;48.754;8.864;2023-05-15T11:56:35;4.80;;;2.60;;
8327;SDS011;4201;48.754;8.864;2023-05-15T11:59:06;3.53;;;2.43;;
8327;SDS011;4201;48.754;8.864;2023-05-15T12:01:39;3.27;;;2.70;;
8327;SDS011;4201;48.754;8.864;2023-05-15T12:04:10;4.40;;;2.93;;
8327;SDS011;4201;48.754;8.864;2023-05-15T12:06:37;4.57;;;2.87;;
8327;SDS011;4201;48.754;8.864;2023-05-15T12:09:03;5.13;;;2.90;;
8327;SDS011;4201;48.754;8.864;2023-05-15T12:11:29;5.67;;;2.97;;
8327;SDS011;4201;48.754;8.864;2023-05-15T12:13:56;7.20;;;3.27;;
8327;SDS011;4201;48.754;8.864;2023-05-15T12:16:23;3.87;;;3.47;;
8327;SDS011;4201;48.754;8.864;2023-05-15T12:18:51;5.60;;;2.87;;
8327;SDS011;4201;48.754;8.864;2023-05-15T12:21:17;3.50;;;2.80;;
8327;SDS011;4201;48.754;8.864;2023-05-15T12:23:49;3.23;;;2.47;;
8327;SDS011;4201;48.754;8.864;2023-05-15T12:26:15;4.03;;;2.87;;
8327;SDS011;4201;48.754;8.864;2023-05-15T12:28:42;3.57;;;2.60;;
8327;SDS011;4201;48.754;8.864;2023-05-15T12:31:09;3.40;;;2.70;;
8327;SDS011;4201;48.754;8.864;2023-05-15T12:33:36;5.53;;;2.50;;
8327;SDS011;4201;48.754;8.864;2023-05-15T12:36:04;4.20;;;2.60;;
8327;SDS011;4201;48.754;8.864;2023-05-15T12:38:31;4.90;;;2.97;;
8327;SDS011;4201;48.754;8.864;2023-05-15T12:40:58;4.00;;;3.10;;
8327;SDS011;4201;48.754;8.864;2023-05-15T12:43:25;2.53;;;1.83;;
8327;SDS011;4201;48.754;8.864;2023-05-15T12:45:52;3.53;;;2.83;;
8327;SDS011;4201;48.754;8.864;2023-05-15T12:48:18;6.20;;;3.63;;
8327;SDS011;4201;48.754;8.864;2023-05-15T12:50:45;5.37;;;4.10;;
8327;SDS011;4201;48.754;8.864;2023-05-15T12:53:13;5.47;;;3.93;;
8327;SDS011;4201;48.754;8.864;2023-05-15T12:55:40;5.77;;;3.30;;
8327;SDS011;4201;48.754;8.864;2023-05-15T12:58:07;6.60;;;3.90;;
8327;SDS011;4201;48.754;8.864;2023-05-15T13:00:35;6.57;;;3.90;;
8327;SDS011;4201;48.754;8.864;2023-05-15T13:03:01;4.50;;;3.37;;
8327;SDS011;4201;48.754;8.864;2023-05-15T13:05:29;4.30;;;3.37;;
8327;SDS011;4201;48.754;8.864;2023-05-15T13:07:56;7.03;;;3.97;;
8327;SDS011;4201;48.754;8.864;2023-05-15T13:10:24;5.30;;;3.70;;
8327;SDS011;4201;48.754;8.864;2023-05-15T13:12:51;4.43;;;3.10;;
8327;SDS011;4201;48.754;8.864;2023-05-15T13:15:22;4.50;;;3.50;;
8327;SDS011;4201;48.754;8.864;2023-05-15T13:17:50;5.17;;;3.10;;
8327;SDS011;4201;48.754;8.864;2023-05-15T13:20:17;3.60;;;2.80;;
8327;SDS011;4201;48.754;8.864;2023-05-15T13:22:43;4.20;;;3.40;;
8327;SDS011;4201;48.754;8.864;2023-05-15T13:25:09;5.93;;;3.27;;
8327;SDS011;4201;48.754;8.864;2023-05-15T13:27:37;5.30;;;3.43;;
8327;SDS011;4201;48.754;8.864;2023-05-15T13:30:04;5.90;;;3.70;;
8327;SDS011;4201;48.754;8.864;2023-05-15T13:32:30;4.93;;;4.10;;
8327;SDS011;4201;48.754;8.864;2023-05-15T13:34:56;5.20;;;3.77;;
8327;SDS011;4201;48.754;8.864;2023-05-15T13:37:23;6.47;;;3.90;;
8327;SDS011;4201;48.754;8.864;2023-05-15T13:39:49;6.50;;;5.13;;
8327;SDS011;4201;48.754;8.864;2023-05-15T13:42:16;4.93;;;3.60;;
8327;SDS011;4201;48.754;8.864;2023-05-15T13:44:43;5.30;;;3.80;;
8327;SDS011;4201;48.754;8.864;2023-05-15T13:47:10;7.00;;;4.10;;
8327;SDS011;4201;48.754;8.864;2023-05-15T13:49:36;5.50;;;4.10;;
8327;SDS011;4201;48.754;8.864;2023-05-15T13:52:02;4.90;;;4.13;;
8327;SDS011;4201;48.754;8.864;2023-05-15T13:54:30;6.70;;;3.90;;
8327;SDS011;4201;48.754;8.864;2023-05-15T13:56:56;5.13;;;4.00;;
8327;SDS011;4201;48.754;8.864;2023-05-15T13:59:22;4.90;;;3.67;;
8327;SDS011;4201;48.754;8.864;2023-05-15T14:01:50;5.40;;;3.20;;
8327;SDS011;4201;48.754;8.864;2023-05-15T14:04:16;7.00;;;3.30;;
8327;SDS011;4201;48.754;8.864;2023-05-15T14:06:42;5.47;;;3.00;;
8327;SDS011;4201;48.754;8.864;2023-05-15T14:09:10;4.10;;;3.27;;
8327;SDS011;4201;48.754;8.864;2023-05-15T14:11:36;5.47;;;2.90;;
8327;SDS011;4201;48.754;8.864;2023-05-15T14:14:02;3.90;;;3.30;;
8327;SDS011;4201;48.754;8.864;2023-05-15T14:16:28;3.90;;;2.90;;
8327;SDS011;4201;48.754;8.864;2023-05-15T14:18:56;4.67;;;2.80;;
8327;SDS011;4201;48.754;8.864;2023-05-15T14:21:23;4.23;;;2.90;;
8327;SDS011;4201;48.754;8.864;2023-05-15T14:23:49;3.73;;;2.90;;
8327;SDS011;4201;48.754;8.864;2023-05-15T14:26:15;4.17;;;2.80;;
8327;SDS011;4201;48.754;8.864;2023-05-15T14:28:41;4.93;;;3.60;;
8327;SDS011;4201;48.754;8.864;2023-05-15T14:31:08;3.67;;;2.97;;
8327;SDS011;4201;48.754;8.864;2023-05-15T14:33:34;5.30;;;3.70;;
8327;SDS011;4201;48.754;8.864;2023-05-15T14:36:01;7.37;;;3.50;;
8327;SDS011;4201;48.754;8.864;2023-05-15T14:38:28;5.20;;;3.20;;
8327;SDS011;4201;48.754;8.864;2023-05-15T14:40:55;4.10;;;3.40;;
8327;SDS011;4201;48.754;8.864;2023-05-15T14:43:21;10.20;;;3.87;;
8327;SDS011;4201;48.754;8.864;2023-05-15T14:45:48;4.90;;;4.00;;
8327;SDS011;4201;48.754;8.864;2023-05-15T14:48:15;5.70;;;3.97;;
8327;SDS011;4201;48.754;8.864;2023-05-15T14:50:41;5.80;;;4.13;;
8327;SDS011;4201;48.754;8.864;2023-05-15T14:53:09;5.83;;;3.83;;
8327;SDS011;4201;48.754;8.864;2023-05-15T14:55:35;7.63;;;4.07;;
8327;SDS011;4201;48.754;8.864;2023-05-15T14:58:01;9.33;;;4.43;;
8327;SDS011;4201;48.754;8.864;2023-05-15T15:00:27;8.63;;;4.80;;
8327;SDS011;4201;48.754;8.864;2023-05-15T15:02:54;5.00;;;4.13;;
8327;SDS011;4201;48.754;8.864;2023-05-15T15:05:20;4.57;;;3.90;;
8327;SDS011;4201;48.754;8.864;2023-05-15T15:08:00;5.60;;;4.70;;
8327;SDS011;4201;48.754;8.864;2023-05-15T15:10:29;7.23;;;5.63;;